Tiempo atmosférico en la estación meteorológica de Fuente El Sol, Valladolid (755 m.)



Fecha
DESCASC
Temp. máxima en grados centígrados (hora)
DESCASC
Temp. mínima en grados centígrados (hora)
DESCASC
Temp. media en grados centígrados
DESCASC
Racha de viento máxima en m/sg (hora)
DESCASC
Velocidad máxima media en intervalos de 10 minutos(hora)
DESCASC
Precipitaciones diarias en mm
DESCASC
Precipitaciones de 00:00 a 06:00 en mm
DESCASC
Precipitaciones de 06:00 a 12:00 en mm
DESCASC
Precipitaciones de 12:00 a 18:00 en mm
DESCASC
Precipitaciones de 18:00 a 24:00 en mm
DESCASC
14-12-2019 11.3 (13:20) 8.3 (03:00) 9.8 12.22 (11:40) 8.06 (00:20) 0 0 0 0 0
13-12-2019 13.2 (13:10) 8.9 (08:10) 11 18.06 (11:30) 13.33 (13:20) 0 0 0 0 0
12-12-2019 11 (23:40) 2.8 (00:10) 6.9 17.78 (15:40) 12.78 (14:40) 0 0 0 0 0
11-12-2019 9.9 (14:50) 2.7 (00:00) 6.3 10.56 (11:00) 8.61 (11:00) 2 0 2 0 0
10-12-2019 6.5 (14:50) -1.6 (09:20) 2.4 4.44 (23:10) 3.33 (23:20) 0.2 0.2 0 0 0
09-12-2019 12.1 (15:50) -0.2 (23:59) 6 8.33 (11:40) 6.11 (12:20) 0.2 0 0.2 0 0
08-12-2019 10.6 (15:40) 0 (00:00) 5.3 8.33 (11:40) 5.83 (13:40) 0.8 0 0.2 0.6 0
07-12-2019 13.6 (16:20) -1.2 (-00:0) 6.2 5 (14:40) 3.33 (14:40) 0.2 0 0.2 0 0
06-12-2019 13.6 (16:30) -1.9 (-00:0) 5.9 3.61 (00:40) 2.78 (00:40) 0 0 0 0 0
05-12-2019 11.8 (15:40) 1 (00:00) 6.4 6.94 (14:40) 4.44 (13:20) 0 0 0 0 0
04-12-2019 10.8 (17:00) -1.5 (08:50) 4.7 5 (00:20) 2.78 (23:30) 0 0 0 0 0
03-12-2019 7.6 (16:20) -2.7 (-00:0) 2.4 5.28 (15:20) 3.33 (15:10) 0 0 0 0 0
02-12-2019 10.2 (15:40) 1.1 (00:00) 5.6 12.78 (13:20) 8.89 (13:30) 0 0 0 0 0
01-12-2019 10.4 (14:40) 4.3 (00:00) 7.3 11.39 (23:40) 6.39 (23:30) 3 0 2.2 0.4 0.4
30-11-2019 14.6 (12:10) 5.2 (00:00) 9.9 16.11 (12:10) 11.39 (12:50) 7.4 0 0 7.2 0.2
29-11-2019 14.7 (15:00) 10.9 (00:00) 12.8 10.83 (01:30) 7.5 (01:30) 5 0 0 0 5
28-11-2019 12.8 (13:10) 7.9 (06:40) 10.4 14.72 (17:30) 10.28 (17:30) 0 0 0 0 0
27-11-2019 12.4 (13:30) 6.3 (00:00) 9.3 15.28 (03:10) 11.39 (14:00) 0 0 0 0 0
26-11-2019 16.8 (14:20) 7.9 (00:00) 12.3 18.33 (17:40) 12.78 (14:30) 0 0 0 0 0
25-11-2019 14.9 (14:00) 7.9 (23:30) 11.4 15.28 (01:20) 10 (12:50) 0.4 0.2 0.2 0 0
24-11-2019 10.3 (23:40) 3 (00:00) 6.7 15.83 (23:30) 10.28 (23:40) 0 0 0 0 0
23-11-2019 10.7 (14:40) 3.9 (00:00) 7.3 19.17 (03:40) 12.5 (03:20) 0 0 0 0 0
22-11-2019 14.9 (14:20) 5.6 (00:00) 10.2 19.44 (16:50) 13.61 (16:50) 6.6 0.4 2 1.6 2.6
21-11-2019 10.2 (14:40) 3.3 (00:00) 6.7 9.72 (11:40) 7.22 (15:10) 0.6 0 0.2 0.4 0
20-11-2019 7.3 (17:30) 3.4 (03:50) 5.4 6.94 (23:50) 4.72 (23:59) 4.8 0 1 3.8 0
19-11-2019 9.3 (14:20) -0.5 (-00:0) 4.4 4.72 (14:50) 2.78 (15:30) 0 0 0 0 0
18-11-2019 10.7 (15:30) -0.7 (-00:0) 5 5.83 (15:20) 4.17 (00:30) 0 0 0 0 0
17-11-2019 11 (14:40) 2.3 (00:00) 6.6 15.28 (15:40) 11.11 (14:50) 1.4 0 0.8 0.6 0
16-11-2019 8.1 (15:40) -1.5 (-00:0) 3.3 8.89 (16:50) 6.94 (14:20) 0 0 0 0 0

Gráficas

Temp. máximas Temp. mínimas Temp. medias Precipitaciones Rachas de viento máximas Velocidades máximas media en intervalos de 10 minutos

Datos horarios

Fecha y hora oficial Temperatura (ºC) Velocidad del viento (km/h) Dirección del viento Racha (km/h) Dirección de racha Precipitación (mm) Presión (hPa) Tendencia (hPa) Humedad (%)
2019-12-15 23:00:00 8.2 21 Sudeste 29 Sudeste 0 -- -- 85
2019-12-15 22:00:00 7.7 11 Sudeste 25 Sudeste 0 -- -- 87
2019-12-15 21:00:00 9 14 Sudeste 22 Sudeste 0 -- -- 82
2019-12-15 20:00:00 9.7 8 Sur 27 Sudeste 0 -- -- 85
2019-12-15 19:00:00 10.1 12 Sudeste 23 Sudoeste 0 -- -- 82
2019-12-15 18:00:00 10.3 15 Sudoeste 34 Sudoeste 0 -- -- 81
2019-12-15 17:00:00 11.2 26 Sudoeste 37 Sudoeste 0 -- -- 76
2019-12-15 16:00:00 12.2 22 Sudoeste 46 Sudoeste 0 -- -- 74
2019-12-15 15:00:00 12.9 32 Sudoeste 53 Sur 0 -- -- 70
2019-12-15 14:00:00 12.8 40 Sudoeste 56 Sudoeste 0 -- -- 65
2019-12-15 13:00:00 12.3 33 Sudoeste 58 Sur 0 -- -- 72
2019-12-15 12:00:00 11.7 32 Sur 51 Sur 0 -- -- 73
2019-12-15 11:00:00 10.4 27 Sur 39 Sur 0 -- -- 79
2019-12-15 10:00:00 8.1 13 Sur 38 Sur 0 -- -- 86
2019-12-15 09:00:00 7.8 16 Sur 26 Sur 0 -- -- 89
2019-12-15 08:00:00 7.5 22 Sur 32 Sur 0 -- -- 89
2019-12-15 07:00:00 8.1 25 Sur 41 Sur 0 -- -- 86
2019-12-15 06:00:00 8.7 24 Sur 38 Sur 0 -- -- 81
2019-12-15 05:00:00 8.6 21 Sur 39 Sur 0 -- -- 86
2019-12-15 04:00:00 8.9 27 Sur 40 Sur 0 -- -- 86
2019-12-15 03:00:00 8.9 19 Sur 29 Sur 0 -- -- 88
2019-12-15 02:00:00 9 22 Sur 36 Sur 0 -- -- 86
2019-12-15 01:00:00 8.9 22 Sur 32 Sur 0 -- -- 87
2019-12-15 00:00:00 9.1 19 Sur 27 Sur 0 -- -- 88
2019-12-14 23:00:00 9.1 18 Sur 27 Sur 0 -- -- 86
2019-12-14 22:00:00 8.9 19 Sur 27 Sur 0 -- -- 86
2019-12-14 21:00:00 8.9 18 Sur 28 Sur 0 -- -- 85
2019-12-14 20:00:00 9.3 19 Sur 29 Sur 0 -- -- 82
2019-12-14 19:00:00 9.7 19 Sur 32 Sudoeste 0 -- -- 81
2019-12-14 18:00:00 10 15 Sudoeste 25 Sudoeste 0 -- -- 83
2019-12-14 17:00:00 10.4 23 Sudoeste 35 Sudoeste 0 -- -- 80
2019-12-14 16:00:00 11.1 25 Sudoeste 34 Sudoeste 0 -- -- 75
2019-12-14 15:00:00 10.9 22 Sudoeste 35 Sudoeste 0 -- -- 79
2019-12-14 14:00:00 11.1 18 Sur 36 Sur 0 -- -- 76
2019-12-14 13:00:00 10.1 24 Sur 37 Sudoeste 0 -- -- 82
2019-12-14 12:00:00 9.8 24 Sur 44 Sur 0 -- -- 87
2019-12-14 11:00:00 9.5 19 Sur 27 Sur 0 -- -- 84
2019-12-14 10:00:00 8.8 18 Sudoeste 27 Sudoeste 0 -- -- 85
2019-12-14 09:00:00 8.4 14 Sur 26 Sudoeste 0 -- -- 85
2019-12-14 08:00:00 8.5 18 Sudoeste 28 Sudoeste 0 -- -- 84
2019-12-14 07:00:00 8.4 16 Sudoeste 29 Sudoeste 0 -- -- 84
2019-12-14 06:00:00 8.7 21 Sudoeste 28 Sudoeste 0 -- -- 82
2019-12-14 05:00:00 8.6 19 Sudoeste 35 Sudoeste 0 -- -- 84
2019-12-14 04:00:00 8.6 21 Sudoeste 35 Sur 0 -- -- 84
2019-12-14 03:00:00 8.3 22 Sudoeste 32 Sudoeste 0 -- -- 90
2019-12-14 02:00:00 8.4 24 Sudoeste 38 Sudoeste 0 -- -- 90
2019-12-14 01:00:00 8.9 23 Sudoeste 40 Sudoeste 0 -- -- 87
2019-12-14 00:00:00 9.7 24 Sudoeste 45 Sudoeste 0 -- -- 89
2019-12-13 23:00:00 9.8 29 Sudoeste 40 Sudoeste 0 -- -- 89
2019-12-13 22:00:00 9.9 21 Sudoeste 36 Sudoeste 0 -- -- 90
2019-12-13 21:00:00 10 26 Sudoeste 44 Sudoeste 0 -- -- 90
2019-12-13 20:00:00 10.6 29 Sudoeste 46 Sudoeste 0 -- -- 88
2019-12-13 19:00:00 10.5 34 Sudoeste 46 Sudoeste 0 -- -- 88
2019-12-13 18:00:00 10.9 30 Sudoeste 51 Sudoeste 0 -- -- 86
2019-12-13 17:00:00 11.9 35 Sudoeste 54 Sudoeste 0 -- -- 83
2019-12-13 16:00:00 12.4 41 Sudoeste 56 Sudoeste 0 -- -- 82
2019-12-13 15:00:00 13 44 Sudoeste 60 Sudoeste 0 -- -- 81
2019-12-13 14:00:00 12.5 44 Sudoeste 62 Sudoeste 0 -- -- 82
2019-12-13 13:00:00 12.5 46 Sudoeste 62 Sudoeste 0 -- -- 82
2019-12-13 12:00:00 11.6 42 Sudoeste 65 Sudoeste 0 -- -- 83
2019-12-13 11:00:00 11.5 41 Sudoeste 59 Sudoeste 0 -- -- 81
2019-12-13 10:00:00 10.2 39 Sudoeste 54 Sudoeste 0 -- -- 86
2019-12-13 09:00:00 9.4 40 Sudoeste 55 Sudoeste 0 -- -- 86
2019-12-13 08:00:00 9.1 32 Sudoeste 48 Sudoeste 0 -- -- 87
2019-12-13 07:00:00 9.7 30 Sudoeste 46 Sudoeste 0 -- -- 88
2019-12-13 06:00:00 10.1 30 Sudoeste 48 Sudoeste 0 -- -- 89
2019-12-13 05:00:00 10.5 36 Sudoeste 52 Sudoeste 0 -- -- 89
2019-12-13 04:00:00 10.9 35 Sudoeste 58 Sudoeste 0 -- -- 88
2019-12-13 03:00:00 11.1 39 Sudoeste 56 Sudoeste 0 -- -- 88
2019-12-13 02:00:00 11 35 Sudoeste 48 Sudoeste 0 -- -- 89
2019-12-13 01:00:00 11.1 32 Sudoeste 47 Sudoeste 0 -- -- 88
2019-12-13 00:00:00 11 35 Sudoeste 59 Sudoeste 0 -- -- 88
2019-12-12 23:00:00 10.7 36 Sudoeste 50 Sudoeste 0 -- -- 90
2019-12-12 22:00:00 10.5 34 Sudoeste 55 Sudoeste 0 -- -- 90
2019-12-12 21:00:00 10.2 41 Sudoeste 57 Sudoeste 0 -- -- 91
2019-12-12 20:00:00 10.1 42 Sudoeste 58 Sudoeste 0 -- -- 90
2019-12-12 19:00:00 9.3 37 Sudoeste 53 Sudoeste 0 -- -- 91
2019-12-12 18:00:00 8.4 39 Sudoeste 58 Sudoeste 0 -- -- 93
2019-12-12 17:00:00 7.8 40 Sudoeste 58 Sudoeste 0 -- -- 94
2019-12-12 16:00:00 7.5 39 Sudoeste 64 Sudoeste 0 -- -- 94
2019-12-12 15:00:00 7.8 43 Sudoeste 64 Sudoeste 0 -- -- 91
2019-12-12 14:00:00 7.7 41 Sudoeste 56 Sudoeste 0 -- -- 86
2019-12-12 13:00:00 7.7 36 Sudoeste 52 Sudoeste 0 -- -- 87
2019-12-12 12:00:00 7.1 35 Sudoeste 56 Sudoeste 0 -- -- 86
2019-12-12 11:00:00 6.7 35 Sudoeste 49 Sudoeste 0 -- -- 87
2019-12-12 10:00:00 6.1 27 Sudoeste 41 Sudoeste 0 -- -- 89
2019-12-12 09:00:00 5.5 25 Sudoeste 39 Sudoeste 0 -- -- 92
2019-12-12 08:00:00 5.1 27 Sudoeste 39 Sudoeste 0 -- -- 94
2019-12-12 07:00:00 4.4 26 Sudoeste 33 Sudoeste 0 -- -- 94
2019-12-12 06:00:00 4 22 Sudoeste 30 Sur 0 -- -- 94
2019-12-12 05:00:00 4 21 Sudoeste 32 Sudoeste 0 -- -- 94
2019-12-12 04:00:00 3.7 22 Sudoeste 39 Sudoeste 0 -- -- 94
2019-12-12 03:00:00 4 24 Sudoeste 35 Sudoeste 0 -- -- 93
2019-12-12 02:00:00 3.8 23 Sudoeste 37 Sudoeste 0 -- -- 92
2019-12-12 01:00:00 4.3 28 Sudoeste 37 Oeste 0 -- -- 90
2019-12-12 00:00:00 2.9 19 Sudoeste 30 Sudoeste 0 -- -- 91
2019-12-11 23:00:00 3.4 21 Sudoeste 32 Sudoeste 0 -- -- 87
2019-12-11 22:00:00 2.7 24 Sudoeste 30 Sudoeste 0 -- -- 89
2019-12-11 21:00:00 3.2 21 Sudoeste 29 Sudoeste 0 -- -- 87
2019-12-11 20:00:00 3.6 23 Sudoeste 28 Sudoeste 0 -- -- 86
2019-12-11 19:00:00 4.7 21 Sudoeste 30 Oeste 0 -- -- 81
2019-12-11 18:00:00 5.7 19 Oeste 36 Oeste 0 -- -- 76
2019-12-11 17:00:00 8.2 26 Oeste 37 Oeste 0 -- -- 67
2019-12-11 16:00:00 9.6 20 Oeste 33 Oeste 0 -- -- 61
2019-12-11 15:00:00 9.5 20 Oeste 32 Oeste 0 -- -- 70
2019-12-11 14:00:00 9.2 24 Oeste 36 Oeste 0 -- -- 72
2019-12-11 13:00:00 9.1 23 Oeste 32 Oeste 0 -- -- 73
2019-12-11 12:00:00 7.6 24 Oeste 36 Oeste 0 -- -- 89
2019-12-11 11:00:00 7 31 Oeste 38 Oeste 0 -- -- 90
2019-12-11 10:00:00 5.4 18 Sudoeste 27 Oeste 0.4 -- -- 97
2019-12-11 09:00:00 4.3 17 Sudoeste 25 Sudoeste 0.4 -- -- 96
2019-12-11 08:00:00 4.2 16 Sudoeste 22 Sudoeste 1.2 -- -- 88
2019-12-11 07:00:00 5.6 6 Sudoeste 18 Sudoeste 0 -- -- 72
2019-12-11 06:00:00 4.2 8 Sudoeste 21 Sudoeste 0 -- -- 77
2019-12-11 05:00:00 5.5 18 Sudoeste 25 Sudoeste 0 -- -- 64
2019-12-11 04:00:00 5.3 15 Sudoeste 22 Sudoeste 0 -- -- 67
2019-12-11 03:00:00 5.3 17 Sudoeste 23 Sudoeste 0 -- -- 73
2019-12-11 02:00:00 4.7 5 Sudoeste 14 Sur 0 -- -- 81
2019-12-11 01:00:00 4 8 Sur 15 Sudoeste 0 -- -- 86
2019-12-11 00:00:00 5 7 Sur 16 Sudoeste 0 -- -- 88
2019-12-10 23:00:00 5.2 6 Sudoeste 12 Sur 0 -- -- 92
2019-12-10 22:00:00 4.1 8 Sur 10 Sur 0 -- -- 100
2019-12-10 21:00:00 2.8 3 Sudeste 6 Noroeste 0 -- -- 100
2019-12-10 20:00:00 3.9 2 Noroeste 3 Noroeste 0 -- -- 98
2019-12-10 19:00:00 5.1 0 Calma 5 Sudeste 0 -- -- 95
2019-12-10 18:00:00 6 6 Este 8 Este 0 -- -- 94
2019-12-10 17:00:00 6.5 3 Este 5 Este 0 -- -- 93
2019-12-10 16:00:00 6.4 2 Este 5 Sur 0 -- -- 99
2019-12-10 15:00:00 6.4 3 Nordeste 5 Este 0 -- -- 94
2019-12-10 14:00:00 3.8 2 Sur 8 Oeste 0 -- -- 98
2019-12-10 13:00:00 1.9 3 Nordeste 7 Oeste 0 -- -- 99
2019-12-10 12:00:00 0.9 4 Oeste 5 Oeste 0 -- -- 100
2019-12-10 11:00:00 -0.1 0 Calma 0 Calma 0 -- -- 100
2019-12-10 10:00:00 -0.9 0 Calma -- -- 0 -- -- 100
2019-12-10 09:00:00 -1.5 0 Calma 2 Este 0 -- -- 100
2019-12-10 08:00:00 -0.4 0 Calma 5 Nordeste 0 -- -- 100
2019-12-10 07:00:00 -0.3 2 Este 8 Nordeste 0 -- -- 100
2019-12-10 06:00:00 0 0 Calma 4 Sudoeste 0.2 -- -- 100
2019-12-10 05:00:00 0.5 4 Sudoeste 5 Sudoeste 0 -- -- 100
2019-12-10 04:00:00 1.2 2 Sur 6 Nordeste 0 -- -- 100
2019-12-10 03:00:00 0.6 4 Este 6 Norte 0 -- -- 100
2019-12-10 02:00:00 -0.5 0 Calma 5 Este 0 -- -- 100
2019-12-10 01:00:00 -0.5 3 Este 7 Nordeste 0 -- -- 100
2019-12-10 00:00:00 -0.2 0 Calma 4 Sur 0 -- -- 100
2019-12-09 23:00:00 0.5 3 Sur 6 Sudoeste 0 -- -- 100
2019-12-09 22:00:00 1.3 2 Sur 6 Sudeste 0 -- -- 100
2019-12-09 21:00:00 2.1 2 Sur 4 Sur 0 -- -- 99
2019-12-09 20:00:00 3.5 0 Calma 4 Norte 0 -- -- 98
2019-12-09 19:00:00 5.9 4 Norte 9 Norte 0 -- -- 96
2019-12-09 18:00:00 7.4 5 Norte 15 Norte 0 -- -- 92
2019-12-09 17:00:00 9.9 5 Norte 12 Oeste 0 -- -- 81
2019-12-09 16:00:00 11.9 9 Oeste 17 Oeste 0 -- -- 69
2019-12-09 15:00:00 11.9 11 Oeste 17 Oeste 0 -- -- 75
2019-12-09 14:00:00 10 14 Sudoeste 18 Sudoeste 0 -- -- 80
2019-12-09 13:00:00 8.9 16 Sudoeste 28 Sudoeste 0 -- -- 95
2019-12-09 12:00:00 6.2 20 Sudoeste 30 Sudoeste 0 -- -- 100
2019-12-09 11:00:00 4.7 15 Sudoeste 23 Sudoeste 0 -- -- 100
2019-12-09 10:00:00 3.6 13 Sur 19 Sur 0 -- -- 100
2019-12-09 09:00:00 3.7 9 Sudoeste 17 Sudoeste 0 -- -- 100
2019-12-09 08:00:00 3.5 4 Oeste 20 Sudoeste 0 -- -- 100
2019-12-09 07:00:00 0.4 0 Calma 5 Oeste 0.2 -- -- 100
2019-12-09 06:00:00 2.3 0 Calma 9 Sudeste 0 -- -- 100
2019-12-09 05:00:00 2.5 8 Sur 11 Sudeste 0 -- -- 100
2019-12-09 04:00:00 4.2 5 Sudoeste 12 Sur 0 -- -- 100
2019-12-09 03:00:00 6.5 10 Sur 12 Sur 0 -- -- 100
2019-12-09 02:00:00 5 5 Sudoeste 6 Sudoeste 0 -- -- 98
2019-12-09 01:00:00 7.2 5 Oeste 14 Oeste 0 -- -- 98
2019-12-09 00:00:00 8.1 9 Oeste 12 Oeste 0 -- -- 98
2019-12-08 23:00:00 8.6 10 Oeste 15 Oeste 0 -- -- 98
2019-12-08 22:00:00 9.7 9 Oeste 18 Oeste 0 -- -- 98
2019-12-08 21:00:00 10 8 Oeste 21 Sudoeste 0 -- -- 98
2019-12-08 20:00:00 10.1 15 Sudoeste 23 Sudoeste 0 -- -- 98
2019-12-08 19:00:00 10.3 18 Sudoeste 27 Sudoeste 0 -- -- 97
2019-12-08 18:00:00 10.3 15 Sudoeste 21 Sudoeste 0 -- -- 96
2019-12-08 17:00:00 10.4 14 Sudoeste 22 Sudoeste 0 -- -- 96
2019-12-08 16:00:00 10.5 16 Sudoeste 25 Sudoeste 0.2 -- -- 95
2019-12-08 15:00:00 10 14 Sudoeste 23 Sudoeste 0.4 -- -- 96
2019-12-08 14:00:00 10 12 Oeste 27 Oeste 0 -- -- 95
2019-12-08 13:00:00 10.5 16 Sudoeste 25 Sudoeste 0 -- -- 89
2019-12-08 12:00:00 10.2 20 Sudoeste 30 Sudoeste 0 -- -- 83
2019-12-08 11:00:00 8.2 15 Sudoeste 21 Sudoeste 0 -- -- 85
2019-12-08 10:00:00 6.1 10 Sur 14 Sur 0 -- -- 93
2019-12-08 09:00:00 4.6 7 Sur 11 Sur 0.2 -- -- 99
2019-12-08 08:00:00 1.3 4 Sudeste 6 Sudeste 0 -- -- 99
2019-12-08 07:00:00 0.4 2 Sudeste 8 Sudeste 0 -- -- 99
2019-12-08 06:00:00 0 3 Sudeste 5 Sudoeste 0 -- -- 99
2019-12-08 05:00:00 0.7 4 Sudeste 8 Sudoeste 0 -- -- 99
2019-12-08 04:00:00 1.4 5 Sur 10 Sudoeste 0 -- -- 100
2019-12-08 03:00:00 1.2 7 Sudoeste 8 Sudoeste 0 -- -- 98
2019-12-08 02:00:00 2.1 5 Sur 8 Sur 0 -- -- 97
2019-12-08 01:00:00 2.7 3 Sur 9 Sur 0 -- -- 98
2019-12-08 00:00:00 1.6 4 Sudoeste 6 Sur 0 -- -- 99
2019-12-07 23:00:00 2.6 2 Sudoeste 10 Sur 0 -- -- 98
2019-12-07 22:00:00 3.7 8 Sudeste 10 Sur 0 -- -- 99
2019-12-07 21:00:00 4 4 Sur 13 Sur 0 -- -- 99
2019-12-07 20:00:00 3.5 4 Sur 5 Sur 0 -- -- 97
2019-12-07 19:00:00 5.3 4 Sudeste 6 Sudeste 0 -- -- 95
2019-12-07 18:00:00 7.5 3 Sur 5 Oeste 0 -- -- 89
2019-12-07 17:00:00 12.2 3 Oeste 6 Noroeste 0 -- -- 69
2019-12-07 16:00:00 12.3 4 Noroeste 10 Oeste 0 -- -- 69
2019-12-07 15:00:00 10.4 9 Noroeste 18 Oeste 0 -- -- 78
2019-12-07 14:00:00 12.4 4 Oeste 8 Oeste 0 -- -- 70
2019-12-07 13:00:00 9.3 5 Sur 9 Sur 0 -- -- 82
2019-12-07 12:00:00 7.1 0 Calma 5 Sudeste 0 -- -- 93
2019-12-07 11:00:00 2.1 0 Calma 4 Oeste 0.2 -- -- 98
2019-12-07 10:00:00 0.3 0 Calma 6 Sudeste 0 -- -- 100
2019-12-07 09:00:00 -0.8 2 Este 4 Sudeste 0 -- -- 100
2019-12-07 08:00:00 -1 0 Calma 0 Calma 0 -- -- 100
2019-12-07 07:00:00 -0.8 0 Calma 2 Noroeste 0 -- -- 100
2019-12-07 06:00:00 -0.3 0 Calma 10 Sur 0 -- -- 100
2019-12-07 05:00:00 -0.7 4 Sur 6 Sur 0 -- -- 100
2019-12-07 04:00:00 -0.4 -- -- -- -- 0 -- -- 100
2019-12-07 03:00:00 0.1 2 Noroeste 5 Noroeste 0 -- -- 100
2019-12-07 02:00:00 0.4 0 Calma 4 Sur 0 -- -- 100
2019-12-07 01:00:00 0.9 4 Sudeste 6 Sudeste 0 -- -- 100
2019-12-07 00:00:00 1.2 2 Sur 6 Sur 0 -- -- 99
2019-12-06 23:00:00 1.5 4 Sur 9 Sur 0 -- -- 99
2019-12-06 22:00:00 2.2 8 Sur 9 Sur 0 -- -- 98
2019-12-06 21:00:00 2.5 5 Sudoeste 6 Sudoeste 0 -- -- 99
2019-12-06 20:00:00 3.2 4 Sudoeste 6 Sur 0 -- -- 97
2019-12-06 19:00:00 4.3 3 Sudoeste 4 Sudoeste 0 -- -- 94
2019-12-06 18:00:00 7.9 0 Calma 5 Oeste 0 -- -- 83
2019-12-06 17:00:00 13.4 2 Oeste 6 Oeste 0 -- -- 64
2019-12-06 16:00:00 12.8 5 Oeste 10 Oeste 0 -- -- 65
2019-12-06 15:00:00 11.6 3 Oeste 13 Oeste 0 -- -- 72
2019-12-06 14:00:00 10.3 6 Oeste 10 Oeste 0 -- -- 73
2019-12-06 13:00:00 9.7 5 Oeste 9 Noroeste 0 -- -- 75
2019-12-06 12:00:00 8.2 0 Calma 5 Sudoeste 0 -- -- 88
2019-12-06 11:00:00 2.1 5 Sudoeste 12 Oeste 0 -- -- 98
2019-12-06 10:00:00 -0.3 4 Sudeste 6 Sudeste 0 -- -- 99
2019-12-06 09:00:00 -1.7 2 Oeste 4 Sudeste 0 -- -- 100
2019-12-06 08:00:00 -1 0 Calma 10 Noroeste 0 -- -- 100
2019-12-06 07:00:00 -1.4 4 Noroeste 7 Noroeste 0 -- -- 100
2019-12-06 06:00:00 -1.1 2 Sur 4 Sudeste 0 -- -- 100
2019-12-06 05:00:00 -0.9 3 Sur 5 Sudeste 0 -- -- 99
2019-12-06 04:00:00 -0.6 2 Sur 9 Sudeste 0 -- -- 99
2019-12-06 03:00:00 -0.3 0 Calma 3 Sudoeste 0 -- -- 99
2019-12-06 02:00:00 0.7 0 Calma 6 Noroeste 0 -- -- 98
2019-12-06 01:00:00 1.1 4 Noroeste 13 Noroeste 0 -- -- 98
2019-12-06 00:00:00 1.2 2 Sur 11 Sur 0 -- -- 96
2019-12-05 23:00:00 2 2 Este 8 Norte 0 -- -- 95
2019-12-05 22:00:00 3.5 5 Norte 12 Norte 0 -- -- 94
2019-12-05 21:00:00 4.7 9 Norte 17 Norte 0 -- -- 90
2019-12-05 20:00:00 6.1 13 Norte 22 Norte 0 -- -- 85
2019-12-05 19:00:00 5.5 9 Noroeste 14 Noroeste 0 -- -- 90
2019-12-05 18:00:00 7.5 8 Norte 19 Norte 0 -- -- 83
2019-12-05 17:00:00 11.3 10 Norte 21 Norte 0 -- -- 68
2019-12-05 16:00:00 11.7 15 Nordeste 23 Nordeste 0 -- -- 65
2019-12-05 15:00:00 11.7 15 Nordeste 25 Nordeste 0 -- -- 66
2019-12-05 14:00:00 10.3 12 Norte 24 Norte 0 -- -- 71
2019-12-05 13:00:00 10.4 11 Nordeste 22 Nordeste 0 -- -- 72
2019-12-05 12:00:00 7.6 7 Nordeste 16 Norte 0 -- -- 84
2019-12-05 11:00:00 6.2 5 Norte 11 Norte 0 -- -- 90
2019-12-05 10:00:00 3.6 3 Noroeste 5 Noroeste 0 -- -- 98
2019-12-05 09:00:00 1.6 2 Norte 4 Norte 0 -- -- 98
2019-12-05 08:00:00 2.1 3 Noroeste 6 Noroeste 0 -- -- 98
2019-12-05 07:00:00 2.2 2 Noroeste 8 Norte 0 -- -- 97
2019-12-05 06:00:00 3.4 4 Norte 10 Norte 0 -- -- 96
2019-12-05 05:00:00 3.1 8 Norte 12 Norte 0 -- -- 96
2019-12-05 04:00:00 3.9 6 Noroeste 8 Noroeste 0 -- -- 95
2019-12-05 03:00:00 3.9 4 Oeste 6 Oeste 0 -- -- 92
2019-12-05 02:00:00 3.5 3 Norte 13 Noroeste 0 -- -- 91
2019-12-05 01:00:00 2.1 4 Norte 15 Norte 0 -- -- 93
2019-12-05 00:00:00 1.8 9 Norte 15 Noroeste 0 -- -- 99
2019-12-04 23:00:00 0.7 3 Noroeste 5 Noroeste 0 -- -- 99
2019-12-04 22:00:00 1.3 3 Sudoeste 5 Sudoeste 0 -- -- 98
2019-12-04 21:00:00 3 4 Este 10 Este 0 -- -- 97
2019-12-04 20:00:00 3.1 6 Sur 9 Sudeste 0 -- -- 96
2019-12-04 19:00:00 5.2 4 Norte 10 Norte 0 -- -- 89
2019-12-04 18:00:00 7.1 2 Nordeste 12 Norte 0 -- -- 84
2019-12-04 17:00:00 10.8 0 Calma 8 Noroeste 0 -- -- 74
2019-12-04 16:00:00 7.8 8 Norte 13 Noroeste 0 -- -- 82
2019-12-04 15:00:00 7.4 3 Noroeste 7 Noroeste 0 -- -- 82
2019-12-04 14:00:00 6.8 7 Norte 14 Noroeste 0 -- -- 80
2019-12-04 13:00:00 4.5 8 Oeste 13 Oeste 0 -- -- 85
2019-12-04 12:00:00 2.5 3 Noroeste 7 Norte 0 -- -- 91
2019-12-04 11:00:00 1.7 7 Sudoeste 11 Sudoeste 0 -- -- 93
2019-12-04 10:00:00 0.2 5 Sudoeste 9 Noroeste 0 -- -- 96
2019-12-04 09:00:00 -1.4 7 Oeste 9 Noroeste 0 -- -- 99
2019-12-04 08:00:00 -1.1 4 Oeste 10 Oeste 0 -- -- 99
2019-12-04 07:00:00 -1.3 8 Noroeste 11 Sudoeste 0 -- -- 98
2019-12-04 06:00:00 -1 8 Oeste 11 Sudoeste 0 -- -- 97
2019-12-04 05:00:00 -0.6 5 Norte 10 Noroeste 0 -- -- 97
2019-12-04 04:00:00 -0.2 6 Norte 9 Norte 0 -- -- 96
2019-12-04 03:00:00 1.2 4 Norte 7 Norte 0 -- -- 95
2019-12-04 02:00:00 1.5 3 Oeste 12 Nordeste 0 -- -- 94
2019-12-04 01:00:00 0.7 8 Nordeste 18 Norte 0 -- -- 96
2019-12-04 00:00:00 0.4 5 Norte 14 Norte 0 -- -- 95
2019-12-03 23:00:00 -0.9 3 Noroeste 5 Noroeste 0 -- -- 96
2019-12-03 22:00:00 0 0 Calma 8 Norte 0 -- -- 93
2019-12-03 21:00:00 0.9 4 Nordeste 5 Nordeste 0 -- -- 94
2019-12-03 20:00:00 1.4 3 Nordeste 7 Nordeste 0 -- -- 91
2019-12-03 19:00:00 3.4 3 Nordeste 12 Nordeste 0 -- -- 82
2019-12-03 18:00:00 5 7 Norte 14 Nordeste 0 -- -- 74
2019-12-03 17:00:00 7.1 9 Nordeste 15 Nordeste 0 -- -- 65
2019-12-03 16:00:00 7.5 10 Nordeste 19 Nordeste 0 -- -- 63
2019-12-03 15:00:00 6.9 12 Nordeste 17 Nordeste 0 -- -- 65
2019-12-03 14:00:00 6.5 8 Nordeste 17 Nordeste 0 -- -- 67
2019-12-03 13:00:00 5.8 8 Nordeste 15 Nordeste 0 -- -- 72
2019-12-03 12:00:00 3.5 9 Nordeste 14 Nordeste 0 -- -- 81
2019-12-03 11:00:00 3.3 4 Nordeste 5 Nordeste 0 -- -- 80
2019-12-03 10:00:00 2 0 Calma 2 Oeste 0 -- -- 92
2019-12-03 09:00:00 -1.1 0 Calma 3 Noroeste 0 -- -- 97
2019-12-03 08:00:00 -2.4 0 Calma 4 Sudoeste 0 -- -- 98
2019-12-03 07:00:00 -2.3 0 Calma 3 Sur 0 -- -- 98
2019-12-03 06:00:00 -1.7 3 Sudeste 4 Noroeste 0 -- -- 98
2019-12-03 05:00:00 -1.9 0 Calma 6 Sudoeste 0 -- -- 97
2019-12-03 04:00:00 -1.3 0 Calma 10 Sudoeste 0 -- -- 97
2019-12-03 03:00:00 -1.5 4 Sudoeste 5 Sudoeste 0 -- -- 95
2019-12-03 02:00:00 -0.4 2 Sudeste 9 Norte 0 -- -- 92
2019-12-03 01:00:00 0.4 5 Norte 14 Norte 0 -- -- 88
2019-12-03 00:00:00 1.1 9 Norte 23 Norte 0 -- -- 87
2019-12-02 23:00:00 1.8 12 Norte 19 Norte 0 -- -- 85
2019-12-02 22:00:00 2.5 13 Norte 24 Nordeste 0 -- -- 86
2019-12-02 21:00:00 3.6 15 Norte 24 Norte 0 -- -- 82
2019-12-02 20:00:00 4.4 18 Norte 38 Norte 0 -- -- 83
2019-12-02 19:00:00 5.5 21 Norte 36 Norte 0 -- -- 80
2019-12-02 18:00:00 6.7 19 Norte 40 Norte 0 -- -- 79
2019-12-02 17:00:00 8.2 24 Norte 40 Norte 0 -- -- 73
2019-12-02 16:00:00 9 25 Norte 41 Norte 0 -- -- 71
2019-12-02 15:00:00 9.6 27 Norte 44 Norte 0 -- -- 66
2019-12-02 14:00:00 9.3 30 Norte 46 Norte 0 -- -- 72
2019-12-02 13:00:00 8.9 27 Norte 39 Norte 0 -- -- 70
2019-12-02 12:00:00 8.3 23 Norte 35 Norte 0 -- -- 72
2019-12-02 11:00:00 7.3 22 Norte 32 Norte 0 -- -- 80
2019-12-02 10:00:00 5.6 14 Norte 21 Norte 0 -- -- 89
2019-12-02 09:00:00 3.9 11 Norte 17 Norte 0 -- -- 94
2019-12-02 08:00:00 3.2 9 Norte 19 Norte 0 -- -- 95
2019-12-02 07:00:00 2.7 10 Norte 16 Norte 0 -- -- 97
2019-12-02 06:00:00 2.7 9 Norte 14 Norte 0 -- -- 97
2019-12-02 05:00:00 3 9 Norte 18 Norte 0 -- -- 96
2019-12-02 04:00:00 3.6 13 Norte 20 Norte 0 -- -- 95
2019-12-02 03:00:00 4.2 11 Norte 26 Norte 0 -- -- 95
2019-12-02 02:00:00 4.9 19 Norte 26 Norte 0 -- -- 94
2019-12-02 01:00:00 5.7 15 Norte 27 Norte 0 -- -- 93
2019-12-02 00:00:00 5.8 19 Norte 41 Norte 0 -- -- 93
2019-12-01 23:00:00 6.2 19 Norte 26 Norte 0 -- -- 94
2019-12-01 22:00:00 6.5 13 Norte 19 Norte 0.2 -- -- 95
2019-12-01 21:00:00 6.3 13 Norte 17 Noroeste 0.2 -- -- 95
2019-12-01 20:00:00 6.5 14 Norte 24 Norte 0 -- -- 94
2019-12-01 19:00:00 6.9 14 Norte 23 Norte 0 -- -- 92
2019-12-01 18:00:00 7.4 13 Norte 21 Norte 0 -- -- 93
2019-12-01 17:00:00 8.1 14 Norte 22 Nordeste 0.4 -- -- 89
2019-12-01 16:00:00 9.8 13 Nordeste 18 Nordeste 0 -- -- 75
2019-12-01 15:00:00 9.7 10 Este 17 Este 0 -- -- 78
2019-12-01 14:00:00 9.5 10 Sudeste 19 Sudeste 0 -- -- 77
2019-12-01 13:00:00 8.3 16 Sudeste 26 Sudeste 0 -- -- 84
2019-12-01 12:00:00 7.5 21 Sudeste 27 Sudeste 0 -- -- 85
2019-12-01 11:00:00 6.9 15 Sudeste 23 Este 0 -- -- 90
2019-12-01 10:00:00 6.3 14 Sudeste 21 Este 0.4 -- -- 92
2019-12-01 09:00:00 5.5 13 Sudeste 28 Sudeste 1.6 -- -- 93
2019-12-01 08:00:00 5.5 17 Sudeste 24 Este 0 -- -- 90
2019-12-01 07:00:00 6 14 Sudeste 30 Sur 0.2 -- -- 90
2019-12-01 06:00:00 6.7 17 Sur 22 Sur 0 -- -- 85
2019-12-01 05:00:00 5.6 14 Sur 22 Sur 0 -- -- 86
2019-12-01 04:00:00 4.5 12 Sur 16 Sur 0 -- -- 90
2019-12-01 03:00:00 4.3 12 Sudeste 22 Sur 0 -- -- 91
2019-12-01 02:00:00 5.6 15 Sur 23 Sur 0 -- -- 86
2019-12-01 01:00:00 5.7 18 Sur 24 Sur 0 -- -- 90
2019-12-01 00:00:00 5.7 14 Sur 18 Sur 0 -- -- 94
2019-11-30 23:00:00 5.4 8 Sur 15 Sur 0 -- -- 97
2019-11-30 22:00:00 5.8 11 Sur 14 Sur 0 -- -- 96
2019-11-30 21:00:00 6.7 8 Sur 16 Sudoeste 0 -- -- 95
2019-11-30 20:00:00 7.9 4 Sur 12 Sur 0 -- -- 88
2019-11-30 19:00:00 8.1 5 Sur 23 Oeste 0.2 -- -- 87
2019-11-30 18:00:00 8.4 11 Sudoeste 39 Oeste 0.2 -- -- 85
2019-11-30 17:00:00 8.5 24 Oeste 40 Oeste 1.4 -- -- 96
2019-11-30 16:00:00 9.7 20 Oeste 34 Oeste 3 -- -- 97
2019-11-30 15:00:00 9.5 32 Oeste 50 Sudoeste 2.6 -- -- 95
2019-11-30 14:00:00 13.5 39 Sudoeste 58 Sudoeste 0 -- -- 84
2019-11-30 13:00:00 13.9 40 Sur 58 Sur 0 -- -- 80
2019-11-30 12:00:00 13.7 36 Sur 53 Sur 0 -- -- 81
2019-11-30 11:00:00 12.8 35 Sur 54 Sur 0 -- -- 84
2019-11-30 10:00:00 12.5 31 Sur 44 Sudoeste 0 -- -- 85
2019-11-30 09:00:00 11.1 26 Sur 36 Sur 0 -- -- 90
2019-11-30 08:00:00 10.8 21 Sur 39 Sur 0 -- -- 92
2019-11-30 07:00:00 11.3 22 Sur 36 Sur 0 -- -- 91
2019-11-30 06:00:00 11.1 24 Sur 32 Sur 0 -- -- 92
2019-11-30 05:00:00 11.3 21 Sur 30 Sur 0 -- -- 94
2019-11-30 04:00:00 11.4 15 Sudoeste 29 Sudoeste 0 -- -- 96
2019-11-30 03:00:00 11.1 18 Sudoeste 26 Sudoeste 0 -- -- 96
2019-11-30 02:00:00 10.8 8 Sudoeste 22 Sur 0 -- -- 96
2019-11-30 01:00:00 11.7 16 Sur 22 Sur 0 -- -- 96
2019-11-30 00:00:00 11.9 10 Sur 20 Sur 0.2 -- -- 97
2019-11-29 23:00:00 11.9 12 Sudoeste 18 Sudoeste 4.6 -- -- 98
2019-11-29 22:00:00 12 10 Sudoeste 15 Sur 0.2 -- -- 94
2019-11-29 21:00:00 11.6 9 Sur 12 Sur 0 -- -- 94
2019-11-29 20:00:00 11.5 7 Sur 11 Sur 0 -- -- 94
2019-11-29 19:00:00 11.7 7 Sur 9 Sudoeste 0 -- -- 93
2019-11-29 18:00:00 12.4 8 Sudoeste 14 Sudoeste 0 -- -- 89
2019-11-29 17:00:00 13.6 13 Sudoeste 26 Sudoeste 0 -- -- 83
2019-11-29 16:00:00 14.2 19 Sudoeste 33 Sudoeste 0 -- -- 82
2019-11-29 15:00:00 14.7 22 Sudoeste 31 Sudoeste 0 -- -- 79
2019-11-29 14:00:00 14.3 23 Sudoeste 32 Sudoeste 0 -- -- 86
2019-11-29 13:00:00 13.5 13 Sudoeste 22 Sudoeste 0 -- -- 91
2019-11-29 12:00:00 13.1 16 Sudoeste 25 Sudoeste 0 -- -- 93
2019-11-29 11:00:00 12.6 10 Sudoeste 15 Sudoeste 0 -- -- 96
2019-11-29 10:00:00 11.5 4 Sudoeste 6 Sur 0 -- -- 99
2019-11-29 09:00:00 11 5 Oeste 13 Sudoeste 0 -- -- 98
2019-11-29 08:00:00 11 9 Sudoeste 14 Sudoeste 0 -- -- 97
2019-11-29 07:00:00 11.1 8 Sudoeste 14 Sudoeste 0 -- -- 97
2019-11-29 06:00:00 11 6 Sur 22 Sudoeste 0 -- -- 97
2019-11-29 05:00:00 10.9 17 Sudoeste 30 Sudoeste 0 -- -- 97
2019-11-29 04:00:00 11.1 23 Sudoeste 31 Sudoeste 0 -- -- 96
2019-11-29 03:00:00 11.1 19 Sudoeste 35 Sudoeste 0 -- -- 95
2019-11-29 02:00:00 11.3 26 Sudoeste 39 Sudoeste 0 -- -- 93
2019-11-29 01:00:00 11.4 25 Sudoeste 37 Sur 0 -- -- 91
2019-11-29 00:00:00 11.7 24 Sudoeste 50 Sur 0 -- -- 88
2019-11-28 23:00:00 11.3 23 Sudoeste 42 Sudoeste 0 -- -- 88
2019-11-28 22:00:00 11.4 28 Sur 42 Sudoeste 0 -- -- 86
2019-11-28 21:00:00 11 22 Sur 33 Sudoeste 0 -- -- 87
2019-11-28 20:00:00 10.9 26 Sur 46 Sur 0 -- -- 86
2019-11-28 19:00:00 10.7 26 Sur 51 Sur 0 -- -- 85
2019-11-28 18:00:00 11.2 35 Sur 53 Sur 0 -- -- 82
2019-11-28 17:00:00 11.8 31 Sur 45 Sur 0 -- -- 84
2019-11-28 16:00:00 12.1 33 Sur 50 Sudoeste 0 -- -- 79
2019-11-28 15:00:00 12.2 31 Sur 51 Sur 0 -- -- 76
2019-11-28 14:00:00 12.3 31 Sur 45 Sur 0 -- -- 75
2019-11-28 13:00:00 12.7 28 Sudoeste 45 Sudoeste 0 -- -- 76
2019-11-28 12:00:00 11.6 30 Sudoeste 40 Sudoeste 0 -- -- 83
2019-11-28 11:00:00 11.1 22 Sudoeste 35 Sur 0 -- -- 83
2019-11-28 10:00:00 10 13 Sur 26 Sudoeste 0 -- -- 87
2019-11-28 09:00:00 8.8 23 Sudoeste 30 Sur 0 -- -- 92
2019-11-28 08:00:00 8.5 19 Sur 36 Sur 0 -- -- 91
2019-11-28 07:00:00 8.2 22 Sudoeste 34 Sudoeste 0 -- -- 93
2019-11-28 06:00:00 8.2 26 Sur 37 Sudoeste 0 -- -- 91
2019-11-28 05:00:00 8.1 25 Sudoeste 38 Sur 0 -- -- 91
2019-11-28 04:00:00 8.7 27 Sudoeste 38 Sudoeste 0 -- -- 92
2019-11-28 03:00:00 9 25 Sudoeste 38 Sudoeste 0 -- -- 90
2019-11-28 02:00:00 8.6 20 Sudoeste 32 Sudoeste 0 -- -- 91
2019-11-28 01:00:00 8.6 20 Sudoeste 28 Sudoeste 0 -- -- 90
2019-11-28 00:00:00 8.7 16 Sudoeste 41 Sudoeste 0 -- -- 90
2019-11-27 23:00:00 8.9 21 Sudoeste 28 Sudoeste 0 -- -- 90
2019-11-27 22:00:00 9 20 Sudoeste 33 Sudoeste 0 -- -- 92
2019-11-27 21:00:00 8.9 19 Sur 27 Sur 0 -- -- 91
2019-11-27 20:00:00 9.4 17 Sudoeste 24 Sur 0 -- -- 87
2019-11-27 19:00:00 10 19 Sudoeste 41 Sudoeste 0 -- -- 78
2019-11-27 18:00:00 10.7 27 Sudoeste 41 Sudoeste 0 -- -- 75
2019-11-27 17:00:00 11.3 30 Sudoeste 50 Sudoeste 0 -- -- 71
2019-11-27 16:00:00 11.5 32 Sudoeste 47 Sur 0 -- -- 74
2019-11-27 15:00:00 12.2 38 Sudoeste 55 Sur 0 -- -- 73
2019-11-27 14:00:00 12 41 Sudoeste 54 Sudoeste 0 -- -- 70
2019-11-27 06:00:00 -- -- -- -- -- -- -- -- --
2019-11-27 05:00:00 -- -- -- -- -- -- -- -- --
2019-11-27 04:00:00 -- -- -- -- -- -- -- -- --
2019-11-27 03:00:00 8.7 40 Sudoeste 53 Sudoeste 0 -- -- 82
2019-11-27 02:00:00 9 28 Sudoeste 43 Sudoeste 0 -- -- 88
2019-11-27 01:00:00 9.4 29 Sudoeste 48 Sudoeste 0 -- -- 89
2019-11-27 00:00:00 10.2 39 Sudoeste 58 Sudoeste 0 -- -- 88
2019-11-26 23:00:00 11 44 Sudoeste 64 Sudoeste 0 -- -- 88
2019-11-26 22:00:00 11.9 41 Sudoeste 55 Sudoeste 0 -- -- 84
2019-11-26 21:00:00 12 32 Sudoeste 58 Sur 0 -- -- 84
2019-11-26 20:00:00 12.4 39 Sudoeste 55 Sudoeste 0 -- -- 85
2019-11-26 19:00:00 12.8 29 Sudoeste 57 Sur 0 -- -- 89
2019-11-26 18:00:00 14.1 41 Sur 66 Sudoeste 0 -- -- 81
2019-11-26 17:00:00 14.8 37 Sur 59 Sur 0 -- -- 77
2019-11-26 16:00:00 15.4 31 Sur 63 Sur 0 -- -- 75
2019-11-26 15:00:00 15.6 40 Sur 62 Sur 0 -- -- 73
2019-11-26 14:00:00 16.4 42 Sur 59 Sur 0 -- -- 71
2019-11-26 13:00:00 14.6 32 Sur 60 Sur 0 -- -- 76
2019-11-26 12:00:00 15.4 33 Sur 52 Sur 0 -- -- 74
2019-11-26 11:00:00 14.2 34 Sur 51 Sur 0 -- -- 83
2019-11-26 10:00:00 12 23 Sur 48 Sur 0 -- -- 94
2019-11-26 09:00:00 11.7 27 Sur 40 Sudoeste 0 -- -- 91
2019-11-26 08:00:00 10.4 16 Sudoeste 26 Sudoeste 0 -- -- 92
2019-11-26 07:00:00 10.4 18 Sudoeste 27 Sudoeste 0 -- -- 91
2019-11-26 06:00:00 10.2 13 Sur 27 Sur 0 -- -- 90
2019-11-26 05:00:00 9.9 17 Sur 26 Sur 0 -- -- 90
2019-11-26 04:00:00 9.5 11 Sur 22 Sur 0 -- -- 93
2019-11-26 03:00:00 9 13 Sur 21 Sur 0 -- -- 95
2019-11-26 02:00:00 8 11 Sur 18 Sudeste 0 -- -- 96
2019-11-26 01:00:00 8.1 12 Sudeste 15 Sudeste 0 -- -- 94
2019-11-26 00:00:00 8.1 13 Sur 26 Sudoeste 0 -- -- 94
2019-11-25 23:00:00 8.2 9 Sur 18 Sur 0 -- -- 96
2019-11-25 22:00:00 8.8 8 Sur 15 Sur 0 -- -- 93
2019-11-25 21:00:00 9.6 10 Sur 19 Sur 0 -- -- 90
2019-11-25 20:00:00 9.7 11 Sudoeste 21 Sudoeste 0 -- -- 89
2019-11-25 19:00:00 10.6 14 Sudoeste 21 Sudoeste 0 -- -- 86
2019-11-25 18:00:00 11.6 9 Sudoeste 33 Sudoeste 0 -- -- 85
2019-11-25 17:00:00 12.8 22 Sudoeste 32 Sudoeste 0 -- -- 80
2019-11-25 16:00:00 13.2 21 Oeste 36 Sudoeste 0 -- -- 77
2019-11-25 15:00:00 13.5 27 Sudoeste 40 Sudoeste 0 -- -- 72
2019-11-25 14:00:00 14.9 27 Oeste 42 Sudoeste 0 -- -- 69
2019-11-25 13:00:00 13 32 Sudoeste 45 Sudoeste 0 -- -- 79
2019-11-25 12:00:00 12.7 22 Sudoeste 44 Sudoeste 0.2 -- -- 83
2019-11-25 11:00:00 13 28 Sudoeste 42 Sudoeste 0 -- -- 81
2019-11-25 10:00:00 10.9 24 Sudoeste 35 Sur 0 -- -- 86
2019-11-25 09:00:00 10.1 25 Sudoeste 36 Sudoeste 0 -- -- 90
2019-11-25 08:00:00 10.2 26 Sudoeste 40 Sudoeste 0 -- -- 89
2019-11-25 07:00:00 9.7 16 Sudoeste 27 Sudoeste 0 -- -- 93
2019-11-25 06:00:00 9.9 13 Sur 32 Sur 0 -- -- 94
2019-11-25 05:00:00 9.7 20 Sudoeste 30 Sudoeste 0 -- -- 95
2019-11-25 04:00:00 9.7 18 Sudoeste 31 Sur 0 -- -- 95
2019-11-25 03:00:00 9.5 22 Sudoeste 37 Sudoeste 0.2 -- -- 96
2019-11-25 02:00:00 9.8 27 Sudoeste 55 Sudoeste 0 -- -- 93
2019-11-25 01:00:00 10.3 33 Sur 51 Sudoeste 0 -- -- 89
2019-11-25 00:00:00 10.3 31 Sur 57 Sudoeste 0 -- -- 86
2019-11-24 23:00:00 9.5 29 Sur 39 Sur 0 -- -- 89
2019-11-24 22:00:00 8.7 25 Sur 38 Sudoeste 0 -- -- 91
2019-11-24 21:00:00 7.8 23 Sur 31 Sur 0 -- -- 91
2019-11-24 20:00:00 8.3 21 Sur 35 Sur 0 -- -- 84
2019-11-24 19:00:00 8.6 19 Sur 29 Sur 0 -- -- 81
2019-11-24 18:00:00 9 9 Sudoeste 20 Sudoeste 0 -- -- 81
2019-11-24 17:00:00 9.3 12 Sudoeste 27 Sudoeste 0 -- -- 77
2019-11-24 16:00:00 9.2 22 Sudoeste 44 Sudoeste 0 -- -- 77
2019-11-24 15:00:00 9.1 24 Sudoeste 32 Sudoeste 0 -- -- 74
2019-11-24 14:00:00 8.8 20 Sudoeste 28 Sudoeste 0 -- -- 74
2019-11-24 13:00:00 8.6 19 Sudoeste 31 Sudoeste 0 -- -- 77
2019-11-24 12:00:00 7.9 22 Sudoeste 32 Sudoeste 0 -- -- 80
2019-11-24 11:00:00 6.6 20 Sudoeste 30 Sudoeste 0 -- -- 86
2019-11-24 10:00:00 5 22 Sudoeste 28 Sudoeste 0 -- -- 92
2019-11-24 09:00:00 3.7 14 Sudoeste 30 Sudoeste 0 -- -- 96
2019-11-24 08:00:00 3.3 23 Sudoeste 33 Sur 0 -- -- 96
2019-11-24 07:00:00 3 18 Sudoeste 27 Sudoeste 0 -- -- 97
2019-11-24 06:00:00 3.3 23 Sudoeste 32 Sudoeste 0 -- -- 97
2019-11-24 05:00:00 3.3 19 Sudoeste 32 Sudoeste 0 -- -- 96
2019-11-24 04:00:00 3.7 16 Sudoeste 31 Sudoeste 0 -- -- 95
2019-11-24 03:00:00 4.1 23 Sudoeste 35 Sudoeste 0 -- -- 94
2019-11-24 02:00:00 3.5 15 Sudoeste 26 Sudoeste 0 -- -- 96
2019-11-24 01:00:00 4.3 23 Sudoeste 32 Sudoeste 0 -- -- 92
2019-11-24 00:00:00 4.5 23 Sudoeste 31 Sudoeste 0 -- -- 91
2019-11-23 23:00:00 5 23 Sudoeste 37 Sudoeste 0 -- -- 89
2019-11-23 22:00:00 4.6 20 Sudoeste 33 Sudoeste 0 -- -- 90
2019-11-23 21:00:00 5.5 24 Sudoeste 31 Sudoeste 0 -- -- 84
2019-11-23 20:00:00 5.9 22 Sudoeste 31 Sudoeste 0 -- -- 81
2019-11-23 19:00:00 6.2 17 Sudoeste 35 Sudoeste 0 -- -- 81
2019-11-23 18:00:00 7.8 23 Sudoeste 36 Sudoeste 0 -- -- 75
2019-11-23 17:00:00 9.5 31 Sudoeste 43 Oeste 0 -- -- 67
2019-11-23 16:00:00 10.5 33 Oeste 49 Oeste 0 -- -- 65
2019-11-23 15:00:00 10.3 36 Oeste 48 Oeste 0 -- -- 66
2019-11-23 14:00:00 10.4 34 Oeste 48 Oeste 0 -- -- 68
2019-11-23 13:00:00 10 36 Sudoeste 46 Sudoeste 0 -- -- 69
2019-11-23 12:00:00 8.8 35 Sudoeste 54 Oeste 0 -- -- 76
2019-11-23 11:00:00 7.2 34 Sudoeste 51 Sudoeste 0 -- -- 81
2019-11-23 10:00:00 5.8 31 Sudoeste 40 Sudoeste 0 -- -- 85
2019-11-23 09:00:00 4.6 30 Sudoeste 44 Oeste 0 -- -- 87
2019-11-23 08:00:00 4.4 33 Sudoeste 46 Sudoeste 0 -- -- 84
2019-11-23 07:00:00 4.5 32 Sudoeste 54 Sudoeste 0 -- -- 86
2019-11-23 06:00:00 5 33 Sudoeste 57 Sudoeste 0 -- -- 84
2019-11-23 05:00:00 5.8 40 Sudoeste 55 Sudoeste 0 -- -- 85
2019-11-23 04:00:00 6.1 40 Sudoeste 69 Sudoeste 0 -- -- 86
2019-11-23 03:00:00 6.1 41 Sudoeste 57 Sudoeste 0 -- -- 85
2019-11-23 02:00:00 6.1 40 Sudoeste 58 Sudoeste 0 -- -- 86
2019-11-23 01:00:00 6 31 Sudoeste 52 Sudoeste 0 -- -- 89
2019-11-23 00:00:00 5.6 46 Sudoeste 62 Sudoeste 1 -- -- 90
2019-11-22 23:00:00 7.1 36 Sudoeste 61 Sudoeste 1.4 -- -- 86
2019-11-22 22:00:00 8.3 41 Sudoeste 56 Sudoeste 0 -- -- 86
2019-11-22 21:00:00 8.3 30 Sudoeste 50 Sudoeste 0 -- -- 84
2019-11-22 20:00:00 8 30 Sudoeste 44 Sudoeste 0 -- -- 86
2019-11-22 19:00:00 8.6 32 Sudoeste 47 Sudoeste 0.2 -- -- 86
2019-11-22 18:00:00 8.8 35 Sudoeste 64 Sudoeste 0.6 -- -- 90
2019-11-22 17:00:00 11 47 Sudoeste 70 Sudoeste 0 -- -- 78
2019-11-22 16:00:00 12.4 36 Sudoeste 62 Sudoeste 0.4 -- -- 86
2019-11-22 15:00:00 14.5 43 Sudoeste 70 Sur 0 -- -- 73
2019-11-22 14:00:00 14.1 35 Sur 55 Sur 0.2 -- -- 76
2019-11-22 13:00:00 11.2 31 Sur 56 Sur 0.4 -- -- 85
2019-11-22 12:00:00 11.7 23 Sur 41 Sudeste 0 -- -- 78
2019-11-22 11:00:00 11.5 25 Sudeste 35 Sudeste 0 -- -- 78
2019-11-22 10:00:00 9.4 25 Sudeste 33 Sudeste 0 -- -- 81
2019-11-22 09:00:00 7.4 20 Sudeste 27 Sudeste 0.2 -- -- 90
2019-11-22 08:00:00 6.8 16 Sudeste 21 Sur 1.2 -- -- 94
2019-11-22 07:00:00 6.5 12 Sudeste 21 Sur 0.6 -- -- 94
2019-11-22 06:00:00 7.1 18 Sur 23 Sur 0.2 -- -- 89
2019-11-22 05:00:00 5.9 14 Sudeste 20 Sudeste 0 -- -- 94
2019-11-22 04:00:00 6.1 14 Sudeste 21 Sudeste 0.2 -- -- 92
2019-11-22 03:00:00 6 12 Sudeste 17 Sudeste 0 -- -- 88
2019-11-22 02:00:00 5.9 13 Sudeste 17 Sudeste 0 -- -- 90
2019-11-22 01:00:00 6.2 11 Sudeste 16 Sudeste 0 -- -- 91
2019-11-22 00:00:00 6.2 9 Sudeste 13 Sur 0 -- -- 91
2019-11-21 23:00:00 6.4 12 Sur 18 Sur 0 -- -- 91
2019-11-21 22:00:00 6.7 12 Sur 18 Sudoeste 0 -- -- 90
2019-11-21 21:00:00 6.4 9 Sur 15 Sur 0 -- -- 91
2019-11-21 20:00:00 6.3 10 Sur 13 Sur 0 -- -- 90
2019-11-21 19:00:00 6.2 6 Sur 12 Sur 0 -- -- 91
2019-11-21 18:00:00 7.4 10 Sur 20 Sudoeste 0 -- -- 84
2019-11-21 17:00:00 9.9 15 Sudoeste 27 Sudoeste 0 -- -- 71
2019-11-21 16:00:00 9.9 17 Sudoeste 35 Sudoeste 0 -- -- 77
2019-11-21 15:00:00 9.8 22 Sudoeste 32 Sudoeste 0 -- -- 73
2019-11-21 14:00:00 10.1 17 Sudoeste 30 Sudoeste 0.2 -- -- 73
2019-11-21 13:00:00 9.8 17 Sudoeste 31 Oeste 0.2 -- -- 78
2019-11-21 12:00:00 7.1 12 Sudoeste 35 Oeste 0 -- -- 86
2019-11-21 11:00:00 8.2 22 Sudoeste 32 Sudoeste 0 -- -- 88
2019-11-21 10:00:00 7.7 15 Sudoeste 23 Sudoeste 0 -- -- 89
2019-11-21 09:00:00 6.4 15 Sudoeste 22 Sur 0 -- -- 92
2019-11-21 08:00:00 -- -- -- -- -- -- -- -- --
2019-11-21 07:00:00 -- -- -- -- -- -- -- -- --
2019-11-21 06:00:00 -- -- -- -- -- -- -- -- --
2019-11-21 05:00:00 -- -- -- -- -- -- -- -- --
2019-11-21 04:00:00 -- -- -- -- -- -- -- -- --
2019-11-21 03:00:00 -- -- -- -- -- -- -- -- --
2019-11-21 02:00:00 -- -- -- -- -- -- -- -- --
2019-11-21 01:00:00 -- -- -- -- -- -- -- -- --
2019-11-21 00:00:00 -- -- -- -- -- -- -- -- --
2019-11-20 23:00:00 -- -- -- -- -- -- -- -- --
2019-11-20 22:00:00 -- -- -- -- -- -- -- -- --
2019-11-20 21:00:00 -- -- -- -- -- -- -- -- --
2019-11-20 20:00:00 -- -- -- -- -- -- -- -- --
2019-11-20 19:00:00 6 13 Sur 24 Sur 0 -- -- 89
2019-11-20 18:00:00 7 12 Sur 19 Sur 0 -- -- 90
2019-11-20 17:00:00 7.2 9 Sudoeste 15 Sudoeste 0 -- -- 90
2019-11-20 16:00:00 7 7 Sudoeste 11 Sudoeste 1 -- -- 93
2019-11-20 15:00:00 6.9 9 Sudoeste 17 Sur 1.2 -- -- 93
2019-11-20 14:00:00 7 14 Sur 21 Sudeste 0.4 -- -- 90
2019-11-20 13:00:00 6.6 16 Sudeste 21 Sudeste 1.2 -- -- 91
2019-11-20 12:00:00 6.5 13 Sur 20 Sur 0 -- -- 91
2019-11-20 11:00:00 6.1 13 Sur 19 Sur 0 -- -- 92
2019-11-20 10:00:00 5.6 14 Sur 22 Sudoeste 0.2 -- -- 92
2019-11-20 09:00:00 4.9 14 Sudoeste 23 Sudoeste 0.2 -- -- 96
2019-11-20 08:00:00 4.9 6 Sur 10 Sur 0.6 -- -- 95
2019-11-20 07:00:00 5.5 7 Sur 14 Sur 0 -- -- 89
2019-11-20 06:00:00 5.2 8 Sur 13 Sudeste 0 -- -- 89
2019-11-20 05:00:00 4.9 9 Sur 12 Sur 0 -- -- 87
2019-11-20 04:00:00 3.5 6 Sudeste 8 Sur 0 -- -- 93
2019-11-20 03:00:00 3.7 4 Sur 7 Sur 0 -- -- 92
2019-11-20 02:00:00 4.4 4 Sudoeste 12 Sur 0 -- -- 90
2019-11-20 01:00:00 5 8 Sur 12 Sur 0 -- -- 88
2019-11-20 00:00:00 4.6 7 Sur 11 Sur 0 -- -- 92
2019-11-19 23:00:00 5 6 Sur 10 Sur 0 -- -- 89
2019-11-19 22:00:00 5.5 7 Sur 11 Sur 0 -- -- 85
2019-11-19 21:00:00 6.2 6 Sur 10 Sur 0 -- -- 79
2019-11-19 20:00:00 5.6 7 Sudeste 9 Sudeste 0 -- -- 85
2019-11-19 19:00:00 5.2 5 Este 6 Sudeste 0 -- -- 85
2019-11-19 18:00:00 6.5 0 Calma 5 Oeste 0 -- -- 78
2019-11-19 17:00:00 8.3 5 Oeste 13 Oeste 0 -- -- 66
2019-11-19 16:00:00 8.9 10 Sudoeste 16 Sudoeste 0 -- -- 62
2019-11-19 15:00:00 9.1 9 Sudoeste 17 Sudoeste 0 -- -- 62
2019-11-19 14:00:00 9 5 Sudoeste 12 Sur 0 -- -- 68
2019-11-19 13:00:00 8.2 7 Sudoeste 10 Sudoeste 0 -- -- 74
2019-11-19 12:00:00 7.3 6 Sudoeste 12 Sudoeste 0 -- -- 76
2019-11-19 11:00:00 4.9 4 Sur 7 Sudeste 0 -- -- 84
2019-11-19 10:00:00 2.1 2 Sudeste 5 Sudeste 0 -- -- 93
2019-11-19 09:00:00 0.7 3 Sur 7 Sur 0 -- -- 95
2019-11-19 08:00:00 0 3 Sur 6 Sur 0 -- -- 96
2019-11-19 07:00:00 -0.5 3 Sur 6 Sudoeste 0 -- -- 96
2019-11-19 06:00:00 -0.5 4 Sur 9 Sur 0 -- -- 95
2019-11-19 05:00:00 -0.4 5 Sur 8 Sur 0 -- -- 96
2019-11-19 04:00:00 -0.3 5 Sur 11 Sudeste 0 -- -- 96
2019-11-19 03:00:00 -0.2 5 Sur 7 Sur 0 -- -- 95
2019-11-19 02:00:00 0.6 2 Sudeste 6 Sudeste 0 -- -- 94
2019-11-19 01:00:00 0.9 4 Sudeste 7 Nordeste 0 -- -- 94
2019-11-19 00:00:00 2.4 0 Calma 8 Nordeste 0 -- -- 92
2019-11-18 23:00:00 2.2 6 Sudoeste 13 Sudoeste 0 -- -- 92
2019-11-18 22:00:00 3.6 11 Sudoeste 16 Sudoeste 0 -- -- 89
2019-11-18 21:00:00 3.9 6 Sudoeste 12 Sudoeste 0 -- -- 91
2019-11-18 20:00:00 5.7 7 Sur 10 Sudoeste 0 -- -- 83
2019-11-18 19:00:00 6.1 0 Calma 5 Sur 0 -- -- 85
2019-11-18 18:00:00 7.8 4 Sudoeste 10 Oeste 0 -- -- 76
2019-11-18 17:00:00 8.5 6 Oeste 15 Oeste 0 -- -- 69
2019-11-18 16:00:00 10.4 10 Oeste 21 Oeste 0 -- -- 61
2019-11-18 15:00:00 10 11 Oeste 19 Oeste 0 -- -- 62
2019-11-18 14:00:00 8.5 8 Oeste 14 Oeste 0 -- -- 70
2019-11-18 13:00:00 9.5 8 Oeste 17 Noroeste 0 -- -- 66
2019-11-18 12:00:00 8.3 9 Noroeste 18 Noroeste 0 -- -- 74
2019-11-18 11:00:00 6.4 10 Oeste 16 Oeste 0 -- -- 79
2019-11-18 10:00:00 3 11 Sudoeste 14 Sudoeste 0 -- -- 92
2019-11-18 09:00:00 0.7 9 Sudoeste 12 Sudoeste 0 -- -- 96
2019-11-18 08:00:00 -0.3 9 Sudoeste 13 Sudoeste 0 -- -- 99
2019-11-18 07:00:00 -0.6 9 Sudoeste 12 Sudoeste 0 -- -- 99
2019-11-18 06:00:00 -0.5 7 Sudoeste 12 Sudoeste 0 -- -- 99
2019-11-18 05:00:00 0 6 Sur 10 Sudoeste 0 -- -- 99
2019-11-18 04:00:00 0.6 11 Sudoeste 13 Sudoeste 0 -- -- 98
2019-11-18 03:00:00 1.1 9 Sudoeste 15 Oeste 0 -- -- 96
2019-11-18 02:00:00 1.9 8 Sudoeste 17 Sudoeste 0 -- -- 95
2019-11-18 01:00:00 3.2 13 Sudoeste 21 Sudoeste 0 -- -- 94
2019-11-18 00:00:00 2.3 9 Sudoeste 21 Sudoeste 0 -- -- 94
2019-11-17 23:00:00 2.9 17 Sudoeste 23 Sudoeste 0 -- -- 94
2019-11-17 22:00:00 3.1 13 Sudoeste 17 Oeste 0 -- -- 92
2019-11-17 21:00:00 5.1 14 Oeste 26 Oeste 0 -- -- 87
2019-11-17 20:00:00 6.7 22 Oeste 44 Oeste 0 -- -- 86
2019-11-17 19:00:00 7.7 24 Oeste 32 Oeste 0 -- -- 84
2019-11-17 18:00:00 8.3 23 Sudoeste 36 Oeste 0 -- -- 85
2019-11-17 17:00:00 9.7 26 Oeste 41 Oeste 0 -- -- 80
2019-11-17 16:00:00 10.6 33 Sudoeste 55 Sudoeste 0 -- -- 84
2019-11-17 15:00:00 10.9 37 Sudoeste 51 Sudoeste 0.2 -- -- 86
2019-11-17 14:00:00 8.3 23 Sudoeste 37 Sudoeste 0 -- -- 97
2019-11-17 13:00:00 7.4 26 Sudoeste 41 Sudoeste 0.4 -- -- 96
2019-11-17 12:00:00 7.2 32 Sudoeste 44 Sudoeste 0.2 -- -- 93
2019-11-17 11:00:00 6.2 28 Sudoeste 37 Sudoeste 0.4 -- -- 94
2019-11-17 10:00:00 5.8 22 Sudoeste 36 Sur 0 -- -- 90
2019-11-17 09:00:00 5.2 18 Sudoeste 29 Sudoeste 0 -- -- 88
2019-11-17 08:00:00 4.3 12 Sur 27 Sudoeste 0.2 -- -- 91
2019-11-17 07:00:00 4.9 18 Sudoeste 28 Sur 0 -- -- 81
2019-11-17 06:00:00 4.1 16 Sur 24 Sur 0 -- -- 86
2019-11-17 05:00:00 3.7 12 Sur 23 Sur 0 -- -- 88
2019-11-17 04:00:00 3.6 16 Sur 22 Sur 0 -- -- 87
2019-11-17 03:00:00 3.2 18 Sur 28 Sudoeste 0 -- -- 86
2019-11-17 02:00:00 2.4 20 Sudoeste 28 Sudoeste 0 -- -- 88
2019-11-17 01:00:00 2.7 17 Sudoeste 27 Sudoeste 0 -- -- 86
2019-11-17 00:00:00 3.4 17 Sudoeste 24 Sudoeste 0 -- -- 84
2019-11-16 23:00:00 2.8 14 Sur 22 Sur 0 -- -- 86
2019-11-16 22:00:00 2.5 15 Sudoeste 21 Sur 0 -- -- 85
2019-11-16 21:00:00 2.2 11 Sudoeste 19 Sudoeste 0 -- -- 87
2019-11-16 20:00:00 3.3 17 Sudoeste 28 Sudoeste 0 -- -- 79
2019-11-16 19:00:00 3.9 16 Sudoeste 24 Sudoeste 0 -- -- 79
2019-11-16 18:00:00 5.9 21 Oeste 30 Sudoeste 0 -- -- 70
2019-11-16 17:00:00 7.5 21 Sudoeste 32 Sudoeste 0 -- -- 72
2019-11-16 16:00:00 7.3 20 Sudoeste 31 Sudoeste 0 -- -- 73
2019-11-16 15:00:00 7.6 23 Sudoeste 31 Sudoeste 0 -- -- 68
2019-11-16 14:00:00 6.9 24 Sudoeste 32 Sudoeste 0 -- -- 72
2019-11-16 13:00:00 5.9 19 Sudoeste 25 Sudoeste 0 -- -- 78
2019-11-16 12:00:00 4.6 21 Sudoeste 28 Sudoeste 0 -- -- 82
2019-11-16 11:00:00 3.5 22 Sudoeste 28 Sudoeste 0 -- -- 84
2019-11-16 10:00:00 1.8 17 Sudoeste 25 Sudoeste 0 -- -- 90
2019-11-16 09:00:00 0.4 13 Sudoeste 18 Sudoeste 0 -- -- 92
2019-11-16 08:00:00 -1.3 9 Sudoeste 12 Sudoeste 0 -- -- 97
2019-11-16 07:00:00 -1 9 Sur 16 Sur 0 -- -- 96
2019-11-16 06:00:00 -0.9 9 Sudoeste 13 Sudoeste 0 -- -- 97
2019-11-16 05:00:00 -0.7 7 Sudoeste 12 Sudoeste 0 -- -- 96
2019-11-16 04:00:00 -0.6 9 Sudoeste 13 Sudoeste 0 -- -- 96
2019-11-16 03:00:00 -0.4 6 Sur 9 Sudoeste 0 -- -- 96
2019-11-16 02:00:00 -0.2 8 Sudoeste 12 Oeste 0 -- -- 95
2019-11-16 01:00:00 0.8 8 Oeste 15 Oeste 0 -- -- 93
2019-11-16 00:00:00 1.4 12 Oeste 19 Oeste 0 -- -- 92